sensor_id;sensor_type;location;lat;lon;timestamp;P1;durP1;ratioP1;P2;durP2;ratioP2
25479;SDS011;13393;49.378;8.686;2023-04-21T00:01:46;12.50;;;10.73;;
25479;SDS011;13393;49.378;8.686;2023-04-21T00:04:12;11.65;;;10.05;;
25479;SDS011;13393;49.378;8.686;2023-04-21T00:06:39;11.88;;;10.32;;
25479;SDS011;13393;49.378;8.686;2023-04-21T00:09:05;13.48;;;11.07;;
25479;SDS011;13393;49.378;8.686;2023-04-21T00:11:33;12.27;;;10.52;;
25479;SDS011;13393;49.378;8.686;2023-04-21T00:13:59;13.45;;;10.88;;
25479;SDS011;13393;49.378;8.686;2023-04-21T00:16:26;13.70;;;10.63;;
25479;SDS011;13393;49.378;8.686;2023-04-21T00:18:52;14.23;;;11.80;;
25479;SDS011;13393;49.378;8.686;2023-04-21T00:21:18;13.77;;;11.15;;
25479;SDS011;13393;49.378;8.686;2023-04-21T00:23:44;13.57;;;10.75;;
25479;SDS011;13393;49.378;8.686;2023-04-21T00:26:13;15.50;;;11.18;;
25479;SDS011;13393;49.378;8.686;2023-04-21T00:28:41;12.43;;;10.93;;
25479;SDS011;13393;49.378;8.686;2023-04-21T00:31:07;13.18;;;10.70;;
25479;SDS011;13393;49.378;8.686;2023-04-21T00:33:34;13.35;;;11.43;;
25479;SDS011;13393;49.378;8.686;2023-04-21T00:36:00;14.45;;;11.15;;
25479;SDS011;13393;49.378;8.686;2023-04-21T00:38:26;14.07;;;11.25;;
25479;SDS011;13393;49.378;8.686;2023-04-21T00:40:53;13.43;;;10.75;;
25479;SDS011;13393;49.378;8.686;2023-04-21T00:43:20;12.15;;;10.57;;
25479;SDS011;13393;49.378;8.686;2023-04-21T00:45:47;13.95;;;10.38;;
25479;SDS011;13393;49.378;8.686;2023-04-21T00:48:14;14.70;;;11.38;;
25479;SDS011;13393;49.378;8.686;2023-04-21T00:50:40;12.50;;;10.68;;
25479;SDS011;13393;49.378;8.686;2023-04-21T00:53:06;14.90;;;11.20;;
25479;SDS011;13393;49.378;8.686;2023-04-21T00:55:34;13.50;;;11.32;;
25479;SDS011;13393;49.378;8.686;2023-04-21T00:58:00;12.55;;;10.75;;
25479;SDS011;13393;49.378;8.686;2023-04-21T01:00:27;14.85;;;11.18;;
25479;SDS011;13393;49.378;8.686;2023-04-21T01:02:55;12.82;;;10.70;;
25479;SDS011;13393;49.378;8.686;2023-04-21T01:05:22;13.93;;;10.90;;
25479;SDS011;13393;49.378;8.686;2023-04-21T01:07:48;12.80;;;10.55;;
25479;SDS011;13393;49.378;8.686;2023-04-21T01:10:15;12.68;;;11.10;;
25479;SDS011;13393;49.378;8.686;2023-04-21T01:12:41;12.93;;;10.70;;
25479;SDS011;13393;49.378;8.686;2023-04-21T01:15:09;13.25;;;11.07;;
25479;SDS011;13393;49.378;8.686;2023-04-21T01:17:36;13.00;;;10.38;;
25479;SDS011;13393;49.378;8.686;2023-04-21T01:20:07;13.65;;;11.20;;
25479;SDS011;13393;49.378;8.686;2023-04-21T01:22:37;12.70;;;10.75;;
25479;SDS011;13393;49.378;8.686;2023-04-21T01:25:04;14.48;;;11.65;;
25479;SDS011;13393;49.378;8.686;2023-04-21T01:27:31;13.13;;;10.57;;
25479;SDS011;13393;49.378;8.686;2023-04-21T01:29:57;14.23;;;11.93;;
25479;SDS011;13393;49.378;8.686;2023-04-21T01:32:25;18.95;;;12.85;;
25479;SDS011;13393;49.378;8.686;2023-04-21T01:34:54;16.00;;;13.07;;
25479;SDS011;13393;49.378;8.686;2023-04-21T01:37:23;17.35;;;13.57;;
25479;SDS011;13393;49.378;8.686;2023-04-21T01:39:52;19.52;;;15.02;;
25479;SDS011;13393;49.378;8.686;2023-04-21T01:42:18;16.90;;;13.45;;
25479;SDS011;13393;49.378;8.686;2023-04-21T01:44:45;15.13;;;12.77;;
25479;SDS011;13393;49.378;8.686;2023-04-21T01:47:13;15.75;;;12.20;;
25479;SDS011;13393;49.378;8.686;2023-04-21T01:49:39;17.42;;;11.32;;
25479;SDS011;13393;49.378;8.686;2023-04-21T01:52:06;14.95;;;11.93;;
25479;SDS011;13393;49.378;8.686;2023-04-21T01:54:32;12.75;;;10.57;;
25479;SDS011;13393;49.378;8.686;2023-04-21T01:57:01;13.02;;;10.70;;
25479;SDS011;13393;49.378;8.686;2023-04-21T01:59:27;11.20;;;9.70;;
25479;SDS011;13393;49.378;8.686;2023-04-21T02:01:53;11.77;;;9.63;;
25479;SDS011;13393;49.378;8.686;2023-04-21T02:04:20;10.60;;;8.93;;
25479;SDS011;13393;49.378;8.686;2023-04-21T02:06:46;11.25;;;9.07;;
25479;SDS011;13393;49.378;8.686;2023-04-21T02:09:12;12.38;;;9.68;;
25479;SDS011;13393;49.378;8.686;2023-04-21T02:11:39;10.40;;;9.30;;
25479;SDS011;13393;49.378;8.686;2023-04-21T02:14:06;10.65;;;9.05;;
25479;SDS011;13393;49.378;8.686;2023-04-21T02:16:33;10.15;;;9.10;;
25479;SDS011;13393;49.378;8.686;2023-04-21T02:18:59;12.38;;;9.32;;
25479;SDS011;13393;49.378;8.686;2023-04-21T02:21:26;11.07;;;9.02;;
25479;SDS011;13393;49.378;8.686;2023-04-21T02:23:52;11.68;;;9.88;;
25479;SDS011;13393;49.378;8.686;2023-04-21T02:26:18;10.02;;;8.88;;
25479;SDS011;13393;49.378;8.686;2023-04-21T02:28:45;10.73;;;8.43;;
25479;SDS011;13393;49.378;8.686;2023-04-21T02:31:13;13.32;;;9.68;;
25479;SDS011;13393;49.378;8.686;2023-04-21T02:33:39;11.48;;;8.63;;
25479;SDS011;13393;49.378;8.686;2023-04-21T02:36:05;12.38;;;9.57;;
25479;SDS011;13393;49.378;8.686;2023-04-21T02:38:32;10.15;;;8.82;;
25479;SDS011;13393;49.378;8.686;2023-04-21T02:41:05;11.18;;;9.00;;
25479;SDS011;13393;49.378;8.686;2023-04-21T02:43:34;11.57;;;9.57;;
25479;SDS011;13393;49.378;8.686;2023-04-21T02:46:04;9.70;;;8.10;;
25479;SDS011;13393;49.378;8.686;2023-04-21T02:48:33;10.32;;;8.88;;
25479;SDS011;13393;49.378;8.686;2023-04-21T02:50:59;10.20;;;8.35;;
25479;SDS011;13393;49.378;8.686;2023-04-21T02:53:27;9.20;;;7.60;;
25479;SDS011;13393;49.378;8.686;2023-04-21T02:55:54;10.05;;;8.30;;
25479;SDS011;13393;49.378;8.686;2023-04-21T02:58:20;9.75;;;7.72;;
25479;SDS011;13393;49.378;8.686;2023-04-21T03:00:46;9.52;;;7.38;;
25479;SDS011;13393;49.378;8.686;2023-04-21T03:03:13;8.93;;;7.38;;
25479;SDS011;13393;49.378;8.686;2023-04-21T03:05:41;9.43;;;7.75;;
25479;SDS011;13393;49.378;8.686;2023-04-21T03:08:08;10.80;;;8.63;;
25479;SDS011;13393;49.378;8.686;2023-04-21T03:10:35;10.00;;;8.00;;
25479;SDS011;13393;49.378;8.686;2023-04-21T03:13:02;12.50;;;9.13;;
25479;SDS011;13393;49.378;8.686;2023-04-21T03:15:28;11.23;;;9.52;;
25479;SDS011;13393;49.378;8.686;2023-04-21T03:17:54;13.07;;;9.60;;
25479;SDS011;13393;49.378;8.686;2023-04-21T03:20:21;12.40;;;9.05;;
25479;SDS011;13393;49.378;8.686;2023-04-21T03:22:48;14.88;;;11.38;;
25479;SDS011;13393;49.378;8.686;2023-04-21T03:25:15;14.73;;;12.60;;
25479;SDS011;13393;49.378;8.686;2023-04-21T03:27:41;18.15;;;13.65;;
25479;SDS011;13393;49.378;8.686;2023-04-21T03:30:08;16.95;;;13.68;;
25479;SDS011;13393;49.378;8.686;2023-04-21T03:32:34;16.10;;;13.10;;
25479;SDS011;13393;49.378;8.686;2023-04-21T03:35:00;18.77;;;14.57;;
25479;SDS011;13393;49.378;8.686;2023-04-21T03:37:27;18.80;;;14.85;;
25479;SDS011;13393;49.378;8.686;2023-04-21T03:39:54;18.60;;;14.27;;
25479;SDS011;13393;49.378;8.686;2023-04-21T03:42:20;17.80;;;14.38;;
25479;SDS011;13393;49.378;8.686;2023-04-21T03:44:47;17.73;;;14.10;;
25479;SDS011;13393;49.378;8.686;2023-04-21T03:47:14;15.95;;;13.35;;
25479;SDS011;13393;49.378;8.686;2023-04-21T03:49:41;17.90;;;14.10;;
25479;SDS011;13393;49.378;8.686;2023-04-21T03:52:07;18.23;;;13.23;;
25479;SDS011;13393;49.378;8.686;2023-04-21T03:54:33;16.15;;;13.50;;
25479;SDS011;13393;49.378;8.686;2023-04-21T03:57:01;16.40;;;12.80;;
25479;SDS011;13393;49.378;8.686;2023-04-21T03:59:27;16.95;;;13.88;;
25479;SDS011;13393;49.378;8.686;2023-04-21T04:01:54;18.85;;;13.43;;
25479;SDS011;13393;49.378;8.686;2023-04-21T04:04:20;15.15;;;12.45;;
25479;SDS011;13393;49.378;8.686;2023-04-21T04:06:46;16.33;;;12.48;;
25479;SDS011;13393;49.378;8.686;2023-04-21T04:09:12;20.40;;;12.68;;
25479;SDS011;13393;49.378;8.686;2023-04-21T04:11:39;16.45;;;12.73;;
25479;SDS011;13393;49.378;8.686;2023-04-21T04:14:06;18.92;;;13.55;;
25479;SDS011;13393;49.378;8.686;2023-04-21T04:16:33;15.02;;;12.32;;
25479;SDS011;13393;49.378;8.686;2023-04-21T04:18:59;14.05;;;11.88;;
25479;SDS011;13393;49.378;8.686;2023-04-21T04:21:25;17.40;;;13.60;;
25479;SDS011;13393;49.378;8.686;2023-04-21T04:23:52;14.85;;;11.80;;
25479;SDS011;13393;49.378;8.686;2023-04-21T04:26:18;17.38;;;13.00;;
25479;SDS011;13393;49.378;8.686;2023-04-21T04:28:46;15.63;;;12.63;;
25479;SDS011;13393;49.378;8.686;2023-04-21T04:31:14;14.98;;;12.70;;
25479;SDS011;13393;49.378;8.686;2023-04-21T04:33:41;16.55;;;13.85;;
25479;SDS011;13393;49.378;8.686;2023-04-21T04:36:07;20.15;;;14.70;;
25479;SDS011;13393;49.378;8.686;2023-04-21T04:38:34;16.40;;;13.35;;
25479;SDS011;13393;49.378;8.686;2023-04-21T04:41:01;17.33;;;13.13;;
25479;SDS011;13393;49.378;8.686;2023-04-21T04:43:28;20.23;;;13.30;;
25479;SDS011;13393;49.378;8.686;2023-04-21T04:45:57;16.63;;;13.32;;
25479;SDS011;13393;49.378;8.686;2023-04-21T04:48:25;16.00;;;13.45;;
25479;SDS011;13393;49.378;8.686;2023-04-21T04:50:51;18.95;;;13.63;;
25479;SDS011;13393;49.378;8.686;2023-04-21T04:53:17;18.17;;;14.07;;
25479;SDS011;13393;49.378;8.686;2023-04-21T04:55:43;16.90;;;13.70;;
25479;SDS011;13393;49.378;8.686;2023-04-21T04:58:10;16.73;;;13.00;;
25479;SDS011;13393;49.378;8.686;2023-04-21T05:00:36;16.90;;;13.35;;
25479;SDS011;13393;49.378;8.686;2023-04-21T05:03:02;18.45;;;14.55;;
25479;SDS011;13393;49.378;8.686;2023-04-21T05:05:30;18.88;;;13.88;;
25479;SDS011;13393;49.378;8.686;2023-04-21T05:07:57;19.90;;;13.52;;
25479;SDS011;13393;49.378;8.686;2023-04-21T05:10:23;18.02;;;14.65;;
25479;SDS011;13393;49.378;8.686;2023-04-21T05:12:50;16.63;;;13.90;;
25479;SDS011;13393;49.378;8.686;2023-04-21T05:15:16;19.42;;;15.50;;
25479;SDS011;13393;49.378;8.686;2023-04-21T05:17:42;19.20;;;15.35;;
25479;SDS011;13393;49.378;8.686;2023-04-21T05:20:09;18.73;;;14.77;;
25479;SDS011;13393;49.378;8.686;2023-04-21T05:22:37;20.58;;;14.95;;
25479;SDS011;13393;49.378;8.686;2023-04-21T05:25:03;18.42;;;14.70;;
25479;SDS011;13393;49.378;8.686;2023-04-21T05:27:30;18.20;;;14.23;;
25479;SDS011;13393;49.378;8.686;2023-04-21T05:29:58;21.85;;;15.48;;
25479;SDS011;13393;49.378;8.686;2023-04-21T05:32:24;16.83;;;13.90;;
25479;SDS011;13393;49.378;8.686;2023-04-21T05:34:50;18.40;;;14.90;;
25479;SDS011;13393;49.378;8.686;2023-04-21T05:37:16;19.90;;;14.43;;
25479;SDS011;13393;49.378;8.686;2023-04-21T05:39:44;21.17;;;14.25;;
25479;SDS011;13393;49.378;8.686;2023-04-21T05:42:10;20.08;;;14.52;;
25479;SDS011;13393;49.378;8.686;2023-04-21T05:44:37;17.05;;;13.55;;
25479;SDS011;13393;49.378;8.686;2023-04-21T05:47:03;16.35;;;13.30;;
25479;SDS011;13393;49.378;8.686;2023-04-21T05:49:30;17.20;;;12.90;;
25479;SDS011;13393;49.378;8.686;2023-04-21T05:51:56;20.15;;;12.98;;
25479;SDS011;13393;49.378;8.686;2023-04-21T05:54:22;16.30;;;12.48;;
25479;SDS011;13393;49.378;8.686;2023-04-21T05:56:51;16.15;;;12.35;;
25479;SDS011;13393;49.378;8.686;2023-04-21T05:59:17;15.20;;;12.65;;
25479;SDS011;13393;49.378;8.686;2023-04-21T06:01:44;16.83;;;12.75;;
25479;SDS011;13393;49.378;8.686;2023-04-21T06:04:10;18.15;;;13.30;;
25479;SDS011;13393;49.378;8.686;2023-04-21T06:06:36;16.98;;;12.70;;
25479;SDS011;13393;49.378;8.686;2023-04-21T06:09:02;16.52;;;12.55;;
25479;SDS011;13393;49.378;8.686;2023-04-21T06:11:29;16.02;;;13.35;;
25479;SDS011;13393;49.378;8.686;2023-04-21T06:13:57;14.63;;;12.32;;
25479;SDS011;13393;49.378;8.686;2023-04-21T06:16:24;15.02;;;12.80;;
25479;SDS011;13393;49.378;8.686;2023-04-21T06:18:50;15.38;;;11.75;;
25479;SDS011;13393;49.378;8.686;2023-04-21T06:21:16;12.73;;;10.82;;
25479;SDS011;13393;49.378;8.686;2023-04-21T06:23:42;13.23;;;11.48;;
25479;SDS011;13393;49.378;8.686;2023-04-21T06:26:09;13.68;;;11.40;;
25479;SDS011;13393;49.378;8.686;2023-04-21T06:28:35;14.70;;;11.70;;
25479;SDS011;13393;49.378;8.686;2023-04-21T06:31:04;13.88;;;12.07;;
25479;SDS011;13393;49.378;8.686;2023-04-21T06:33:30;13.85;;;11.23;;
25479;SDS011;13393;49.378;8.686;2023-04-21T06:35:57;13.15;;;11.27;;
25479;SDS011;13393;49.378;8.686;2023-04-21T06:38:23;13.52;;;11.43;;
25479;SDS011;13393;49.378;8.686;2023-04-21T06:40:50;15.32;;;11.25;;
25479;SDS011;13393;49.378;8.686;2023-04-21T06:43:16;17.05;;;11.32;;
25479;SDS011;13393;49.378;8.686;2023-04-21T06:45:42;13.35;;;10.82;;
25479;SDS011;13393;49.378;8.686;2023-04-21T06:48:10;13.93;;;11.55;;
25479;SDS011;13393;49.378;8.686;2023-04-21T06:50:36;14.98;;;10.88;;
25479;SDS011;13393;49.378;8.686;2023-04-21T06:53:02;13.23;;;11.15;;
25479;SDS011;13393;49.378;8.686;2023-04-21T06:55:29;13.60;;;11.75;;
25479;SDS011;13393;49.378;8.686;2023-04-21T06:57:55;14.18;;;11.32;;
25479;SDS011;13393;49.378;8.686;2023-04-21T07:00:21;15.43;;;11.45;;
25479;SDS011;13393;49.378;8.686;2023-04-21T07:02:48;15.27;;;11.98;;
25479;SDS011;13393;49.378;8.686;2023-04-21T07:05:16;14.35;;;11.57;;
25479;SDS011;13393;49.378;8.686;2023-04-21T07:07:42;12.75;;;11.35;;
25479;SDS011;13393;49.378;8.686;2023-04-21T07:10:08;14.40;;;11.65;;
25479;SDS011;13393;49.378;8.686;2023-04-21T07:12:35;13.13;;;11.25;;
25479;SDS011;13393;49.378;8.686;2023-04-21T07:15:01;15.88;;;11.70;;
25479;SDS011;13393;49.378;8.686;2023-04-21T07:17:28;13.43;;;11.30;;
25479;SDS011;13393;49.378;8.686;2023-04-21T07:19:54;13.85;;;11.60;;
25479;SDS011;13393;49.378;8.686;2023-04-21T07:22:22;13.93;;;11.38;;
25479;SDS011;13393;49.378;8.686;2023-04-21T07:24:48;20.70;;;12.63;;
25479;SDS011;13393;49.378;8.686;2023-04-21T07:27:14;26.60;;;13.32;;
25479;SDS011;13393;49.378;8.686;2023-04-21T07:29:43;24.40;;;13.50;;
25479;SDS011;13393;49.378;8.686;2023-04-21T07:32:09;18.65;;;13.90;;
25479;SDS011;13393;49.378;8.686;2023-04-21T07:34:35;17.80;;;12.63;;
25479;SDS011;13393;49.378;8.686;2023-04-21T07:37:02;15.80;;;13.13;;
25479;SDS011;13393;49.378;8.686;2023-04-21T07:39:29;12.70;;;11.40;;
25479;SDS011;13393;49.378;8.686;2023-04-21T07:41:55;13.43;;;11.38;;
25479;SDS011;13393;49.378;8.686;2023-04-21T07:44:22;13.85;;;12.07;;
25479;SDS011;13393;49.378;8.686;2023-04-21T07:46:48;15.32;;;12.13;;
25479;SDS011;13393;49.378;8.686;2023-04-21T07:49:15;15.60;;;11.18;;
25479;SDS011;13393;49.378;8.686;2023-04-21T07:51:41;14.10;;;11.43;;
25479;SDS011;13393;49.378;8.686;2023-04-21T07:54:07;16.27;;;11.60;;
25479;SDS011;13393;49.378;8.686;2023-04-21T07:56:35;13.48;;;12.00;;
25479;SDS011;13393;49.378;8.686;2023-04-21T07:59:01;13.10;;;11.02;;
25479;SDS011;13393;49.378;8.686;2023-04-21T08:01:28;13.95;;;11.18;;
25479;SDS011;13393;49.378;8.686;2023-04-21T08:03:54;12.60;;;11.20;;
25479;SDS011;13393;49.378;8.686;2023-04-21T08:06:20;13.88;;;11.00;;
25479;SDS011;13393;49.378;8.686;2023-04-21T08:08:47;14.30;;;11.48;;
25479;SDS011;13393;49.378;8.686;2023-04-21T08:11:14;13.82;;;12.00;;
25479;SDS011;13393;49.378;8.686;2023-04-21T08:13:41;15.80;;;12.55;;
25479;SDS011;13393;49.378;8.686;2023-04-21T08:16:08;15.07;;;12.40;;
25479;SDS011;13393;49.378;8.686;2023-04-21T08:18:34;15.68;;;12.95;;
25479;SDS011;13393;49.378;8.686;2023-04-21T08:21:01;15.73;;;12.98;;
25479;SDS011;13393;49.378;8.686;2023-04-21T08:23:27;17.95;;;12.93;;
25479;SDS011;13393;49.378;8.686;2023-04-21T08:25:55;13.80;;;12.30;;
25479;SDS011;13393;49.378;8.686;2023-04-21T08:28:21;13.82;;;12.40;;
25479;SDS011;13393;49.378;8.686;2023-04-21T08:30:49;14.18;;;12.32;;
25479;SDS011;13393;49.378;8.686;2023-04-21T08:33:15;16.10;;;12.95;;
25479;SDS011;13393;49.378;8.686;2023-04-21T08:35:41;13.25;;;11.85;;
25479;SDS011;13393;49.378;8.686;2023-04-21T08:38:08;14.73;;;12.50;;
25479;SDS011;13393;49.378;8.686;2023-04-21T08:40:35;15.10;;;12.82;;
25479;SDS011;13393;49.378;8.686;2023-04-21T08:43:03;14.85;;;12.80;;
25479;SDS011;13393;49.378;8.686;2023-04-21T08:45:29;14.95;;;13.05;;
25479;SDS011;13393;49.378;8.686;2023-04-21T08:47:57;18.65;;;12.57;;
25479;SDS011;13393;49.378;8.686;2023-04-21T08:50:25;15.55;;;12.25;;
25479;SDS011;13393;49.378;8.686;2023-04-21T08:52:52;16.73;;;13.73;;
25479;SDS011;13393;49.378;8.686;2023-04-21T08:55:18;16.42;;;13.57;;
25479;SDS011;13393;49.378;8.686;2023-04-21T08:57:45;14.45;;;12.80;;
25479;SDS011;13393;49.378;8.686;2023-04-21T09:00:12;15.65;;;12.52;;
25479;SDS011;13393;49.378;8.686;2023-04-21T09:02:51;15.98;;;12.15;;
25479;SDS011;13393;49.378;8.686;2023-04-21T09:05:21;13.35;;;12.02;;
25479;SDS011;13393;49.378;8.686;2023-04-21T09:07:48;15.13;;;12.50;;
25479;SDS011;13393;49.378;8.686;2023-04-21T09:10:16;14.93;;;12.57;;
25479;SDS011;13393;49.378;8.686;2023-04-21T09:12:48;13.40;;;11.07;;
25479;SDS011;13393;49.378;8.686;2023-04-21T09:15:15;12.32;;;10.75;;
25479;SDS011;13393;49.378;8.686;2023-04-21T09:17:43;13.43;;;11.95;;
25479;SDS011;13393;49.378;8.686;2023-04-21T09:20:11;14.82;;;11.93;;
25479;SDS011;13393;49.378;8.686;2023-04-21T09:22:39;15.80;;;12.27;;
25479;SDS011;13393;49.378;8.686;2023-04-21T09:25:06;13.23;;;11.82;;
25479;SDS011;13393;49.378;8.686;2023-04-21T09:27:34;14.88;;;12.23;;
25479;SDS011;13393;49.378;8.686;2023-04-21T09:30:01;13.50;;;12.07;;
25479;SDS011;13393;49.378;8.686;2023-04-21T09:32:27;14.90;;;12.50;;
25479;SDS011;13393;49.378;8.686;2023-04-21T09:34:58;13.63;;;12.15;;
25479;SDS011;13393;49.378;8.686;2023-04-21T09:37:25;15.27;;;11.80;;
25479;SDS011;13393;49.378;8.686;2023-04-21T09:39:55;13.02;;;11.23;;
25479;SDS011;13393;49.378;8.686;2023-04-21T09:42:26;12.15;;;10.95;;
25479;SDS011;13393;49.378;8.686;2023-04-21T09:44:53;13.82;;;11.65;;
25479;SDS011;13393;49.378;8.686;2023-04-21T09:47:19;12.45;;;10.73;;
25479;SDS011;13393;49.378;8.686;2023-04-21T09:49:46;12.43;;;10.82;;
25479;SDS011;13393;49.378;8.686;2023-04-21T09:52:15;14.75;;;11.45;;
25479;SDS011;13393;49.378;8.686;2023-04-21T09:54:42;13.05;;;11.35;;
25479;SDS011;13393;49.378;8.686;2023-04-21T09:57:11;16.52;;;11.82;;
25479;SDS011;13393;49.378;8.686;2023-04-21T09:59:44;15.30;;;12.25;;
25479;SDS011;13393;49.378;8.686;2023-04-21T10:02:10;14.00;;;12.00;;
25479;SDS011;13393;49.378;8.686;2023-04-21T10:04:37;15.60;;;11.82;;
25479;SDS011;13393;49.378;8.686;2023-04-21T10:07:05;15.52;;;12.00;;
25479;SDS011;13393;49.378;8.686;2023-04-21T10:09:34;15.65;;;12.27;;
25479;SDS011;13393;49.378;8.686;2023-04-21T10:12:02;15.68;;;11.32;;
25479;SDS011;13393;49.378;8.686;2023-04-21T10:14:30;13.98;;;10.40;;
25479;SDS011;13393;49.378;8.686;2023-04-21T10:16:57;13.00;;;10.02;;
25479;SDS011;13393;49.378;8.686;2023-04-21T10:19:28;11.52;;;9.00;;
25479;SDS011;13393;49.378;8.686;2023-04-21T10:21:59;12.50;;;10.95;;
25479;SDS011;13393;49.378;8.686;2023-04-21T10:24:27;11.85;;;10.05;;
25479;SDS011;13393;49.378;8.686;2023-04-21T10:26:53;12.40;;;10.63;;
25479;SDS011;13393;49.378;8.686;2023-04-21T10:29:27;14.65;;;10.98;;
25479;SDS011;13393;49.378;8.686;2023-04-21T10:31:54;12.88;;;10.77;;
25479;SDS011;13393;49.378;8.686;2023-04-21T10:34:21;10.77;;;9.25;;
25479;SDS011;13393;49.378;8.686;2023-04-21T10:37:13;10.48;;;9.38;;
25479;SDS011;13393;49.378;8.686;2023-04-21T10:39:42;11.10;;;9.82;;
25479;SDS011;13393;49.378;8.686;2023-04-21T10:42:25;11.98;;;9.85;;
25479;SDS011;13393;49.378;8.686;2023-04-21T10:44:52;10.80;;;9.57;;
25479;SDS011;13393;49.378;8.686;2023-04-21T10:47:26;13.50;;;9.68;;
25479;SDS011;13393;49.378;8.686;2023-04-21T10:49:54;12.45;;;8.93;;
25479;SDS011;13393;49.378;8.686;2023-04-21T10:52:21;11.88;;;9.27;;
25479;SDS011;13393;49.378;8.686;2023-04-21T10:55:06;10.23;;;9.00;;
25479;SDS011;13393;49.378;8.686;2023-04-21T10:57:34;9.45;;;8.45;;
25479;SDS011;13393;49.378;8.686;2023-04-21T11:00:01;9.95;;;8.55;;
25479;SDS011;13393;49.378;8.686;2023-04-21T11:02:32;8.65;;;7.65;;
25479;SDS011;13393;49.378;8.686;2023-04-21T11:04:59;11.85;;;8.75;;
25479;SDS011;13393;49.378;8.686;2023-04-21T11:07:26;11.63;;;9.70;;
25479;SDS011;13393;49.378;8.686;2023-04-21T11:09:56;11.55;;;9.45;;
25479;SDS011;13393;49.378;8.686;2023-04-21T11:12:25;11.40;;;9.57;;
25479;SDS011;13393;49.378;8.686;2023-04-21T11:14:51;10.55;;;8.90;;
25479;SDS011;13393;49.378;8.686;2023-04-21T11:17:18;10.55;;;8.52;;
25479;SDS011;13393;49.378;8.686;2023-04-21T11:19:47;11.27;;;8.98;;
25479;SDS011;13393;49.378;8.686;2023-04-21T11:22:15;11.13;;;9.05;;
25479;SDS011;13393;49.378;8.686;2023-04-21T11:24:43;10.35;;;8.95;;
25479;SDS011;13393;49.378;8.686;2023-04-21T11:27:09;9.60;;;8.63;;
25479;SDS011;13393;49.378;8.686;2023-04-21T11:29:36;12.05;;;8.52;;
25479;SDS011;13393;49.378;8.686;2023-04-21T11:32:04;11.27;;;9.15;;
25479;SDS011;13393;49.378;8.686;2023-04-21T11:34:31;12.60;;;9.93;;
25479;SDS011;13393;49.378;8.686;2023-04-21T11:36:59;10.65;;;9.27;;
25479;SDS011;13393;49.378;8.686;2023-04-21T11:39:25;10.57;;;9.38;;
25479;SDS011;13393;49.378;8.686;2023-04-21T11:41:51;11.63;;;10.00;;
25479;SDS011;13393;49.378;8.686;2023-04-21T11:44:34;10.05;;;8.70;;
25479;SDS011;13393;49.378;8.686;2023-04-21T11:47:10;11.75;;;9.18;;
25479;SDS011;13393;49.378;8.686;2023-04-21T11:49:42;9.52;;;8.55;;
25479;SDS011;13393;49.378;8.686;2023-04-21T11:52:10;9.48;;;7.97;;
25479;SDS011;13393;49.378;8.686;2023-04-21T11:54:37;8.68;;;7.78;;
25479;SDS011;13393;49.378;8.686;2023-04-21T11:57:03;8.05;;;7.25;;
25479;SDS011;13393;49.378;8.686;2023-04-21T11:59:30;8.10;;;7.25;;
25479;SDS011;13393;49.378;8.686;2023-04-21T12:01:57;9.13;;;7.45;;
25479;SDS011;13393;49.378;8.686;2023-04-21T12:04:24;9.10;;;7.93;;
25479;SDS011;13393;49.378;8.686;2023-04-21T12:06:54;10.43;;;8.95;;
25479;SDS011;13393;49.378;8.686;2023-04-21T12:09:22;9.73;;;8.70;;
25479;SDS011;13393;49.378;8.686;2023-04-21T12:11:49;9.38;;;8.45;;
25479;SDS011;13393;49.378;8.686;2023-04-21T12:14:16;9.38;;;8.30;;
25479;SDS011;13393;49.378;8.686;2023-04-21T12:16:43;10.05;;;8.60;;
25479;SDS011;13393;49.378;8.686;2023-04-21T12:19:09;10.80;;;9.43;;
25479;SDS011;13393;49.378;8.686;2023-04-21T12:21:36;9.95;;;8.93;;
25479;SDS011;13393;49.378;8.686;2023-04-21T12:24:02;10.40;;;9.18;;
25479;SDS011;13393;49.378;8.686;2023-04-21T12:26:30;10.75;;;9.65;;
25479;SDS011;13393;49.378;8.686;2023-04-21T12:28:57;10.18;;;9.18;;
25479;SDS011;13393;49.378;8.686;2023-04-21T12:31:24;12.55;;;9.82;;
25479;SDS011;13393;49.378;8.686;2023-04-21T12:33:51;11.85;;;10.55;;
25479;SDS011;13393;49.378;8.686;2023-04-21T12:36:17;10.80;;;9.65;;
25479;SDS011;13393;49.378;8.686;2023-04-21T12:38:43;11.63;;;10.45;;
25479;SDS011;13393;49.378;8.686;2023-04-21T12:41:10;10.25;;;9.13;;
25479;SDS011;13393;49.378;8.686;2023-04-21T12:43:37;11.07;;;9.80;;
25479;SDS011;13393;49.378;8.686;2023-04-21T12:46:04;10.73;;;9.45;;
25479;SDS011;13393;49.378;8.686;2023-04-21T12:48:30;11.23;;;9.15;;
25479;SDS011;13393;49.378;8.686;2023-04-21T12:50:58;52.47;;;24.23;;
25479;SDS011;13393;49.378;8.686;2023-04-21T12:53:24;16.05;;;11.10;;
25479;SDS011;13393;49.378;8.686;2023-04-21T12:55:51;9.80;;;8.55;;
25479;SDS011;13393;49.378;8.686;2023-04-21T12:58:17;11.80;;;9.80;;
25479;SDS011;13393;49.378;8.686;2023-04-21T13:00:45;10.48;;;9.43;;
25479;SDS011;13393;49.378;8.686;2023-04-21T13:03:11;10.43;;;9.43;;
25479;SDS011;13393;49.378;8.686;2023-04-21T13:05:38;9.55;;;8.55;;
25479;SDS011;13393;49.378;8.686;2023-04-21T13:08:04;10.13;;;8.75;;
25479;SDS011;13393;49.378;8.686;2023-04-21T13:10:30;10.82;;;9.65;;
25479;SDS011;13393;49.378;8.686;2023-04-21T13:12:57;10.15;;;9.13;;
25479;SDS011;13393;49.378;8.686;2023-04-21T13:15:23;9.60;;;8.63;;
25479;SDS011;13393;49.378;8.686;2023-04-21T13:17:51;11.40;;;10.10;;
25479;SDS011;13393;49.378;8.686;2023-04-21T13:20:18;9.88;;;8.88;;
25479;SDS011;13393;49.378;8.686;2023-04-21T13:22:44;10.02;;;9.02;;
25479;SDS011;13393;49.378;8.686;2023-04-21T13:25:11;9.55;;;8.60;;
25479;SDS011;13393;49.378;8.686;2023-04-21T13:27:37;9.52;;;8.60;;
25479;SDS011;13393;49.378;8.686;2023-04-21T13:30:05;9.32;;;8.40;;
25479;SDS011;13393;49.378;8.686;2023-04-21T13:32:32;8.98;;;8.07;;
25479;SDS011;13393;49.378;8.686;2023-04-21T13:35:02;10.27;;;8.95;;
25479;SDS011;13393;49.378;8.686;2023-04-21T13:37:32;7.78;;;7.07;;
25479;SDS011;13393;49.378;8.686;2023-04-21T13:39:59;9.38;;;8.45;;
25479;SDS011;13393;49.378;8.686;2023-04-21T13:42:25;8.38;;;7.28;;
25479;SDS011;13393;49.378;8.686;2023-04-21T13:44:51;8.20;;;7.35;;
25479;SDS011;13393;49.378;8.686;2023-04-21T13:47:18;8.68;;;7.88;;
25479;SDS011;13393;49.378;8.686;2023-04-21T13:49:44;8.38;;;7.57;;
25479;SDS011;13393;49.378;8.686;2023-04-21T13:52:12;7.47;;;6.78;;
25479;SDS011;13393;49.378;8.686;2023-04-21T13:54:38;8.90;;;8.10;;
25479;SDS011;13393;49.378;8.686;2023-04-21T13:57:05;7.63;;;6.93;;
25479;SDS011;13393;49.378;8.686;2023-04-21T13:59:31;8.38;;;7.57;;
25479;SDS011;13393;49.378;8.686;2023-04-21T14:01:57;8.65;;;7.85;;
25479;SDS011;13393;49.378;8.686;2023-04-21T14:04:24;8.93;;;7.50;;
25479;SDS011;13393;49.378;8.686;2023-04-21T14:06:50;8.18;;;7.47;;
25479;SDS011;13393;49.378;8.686;2023-04-21T14:09:18;7.53;;;6.82;;
25479;SDS011;13393;49.378;8.686;2023-04-21T14:11:45;7.72;;;7.03;;
25479;SDS011;13393;49.378;8.686;2023-04-21T14:14:11;7.22;;;6.53;;
25479;SDS011;13393;49.378;8.686;2023-04-21T14:16:37;7.60;;;6.97;;
25479;SDS011;13393;49.378;8.686;2023-04-21T14:19:04;6.55;;;5.95;;
25479;SDS011;13393;49.378;8.686;2023-04-21T14:21:30;7.55;;;6.85;;
25479;SDS011;13393;49.378;8.686;2023-04-21T14:23:56;8.10;;;7.40;;
25479;SDS011;13393;49.378;8.686;2023-04-21T14:26:24;7.00;;;6.35;;
25479;SDS011;13393;49.378;8.686;2023-04-21T14:28:51;8.18;;;7.47;;